sensor_id;sensor_type;location;lat;lon;timestamp;P1;durP1;ratioP1;P2;durP2;ratioP2
45730;SDS011;31440;48.584;13.460;2023-04-24T00:01:55;0.75;;;0.75;;
45730;SDS011;31440;48.584;13.460;2023-04-24T00:05:01;0.80;;;0.80;;
45730;SDS011;31440;48.584;13.460;2023-04-24T00:08:07;0.65;;;0.65;;
45730;SDS011;31440;48.584;13.460;2023-04-24T00:11:11;0.65;;;0.65;;
45730;SDS011;31440;48.584;13.460;2023-04-24T00:14:16;1.10;;;1.10;;
45730;SDS011;31440;48.584;13.460;2023-04-24T00:17:20;0.98;;;0.98;;
45730;SDS011;31440;48.584;13.460;2023-04-24T00:20:25;0.88;;;0.88;;
45730;SDS011;31440;48.584;13.460;2023-04-24T00:23:29;0.87;;;0.87;;
45730;SDS011;31440;48.584;13.460;2023-04-24T00:26:34;0.93;;;0.93;;
45730;SDS011;31440;48.584;13.460;2023-04-24T00:29:39;0.80;;;0.80;;
45730;SDS011;31440;48.584;13.460;2023-04-24T00:32:44;1.08;;;1.08;;
45730;SDS011;31440;48.584;13.460;2023-04-24T00:35:48;1.08;;;1.08;;
45730;SDS011;31440;48.584;13.460;2023-04-24T00:38:53;0.80;;;0.80;;
45730;SDS011;31440;48.584;13.460;2023-04-24T00:41:58;0.75;;;0.75;;
45730;SDS011;31440;48.584;13.460;2023-04-24T00:45:03;1.02;;;1.02;;
45730;SDS011;31440;48.584;13.460;2023-04-24T00:48:09;1.08;;;1.08;;
45730;SDS011;31440;48.584;13.460;2023-04-24T00:51:15;1.00;;;1.00;;
45730;SDS011;31440;48.584;13.460;2023-04-24T00:54:20;1.00;;;1.00;;
45730;SDS011;31440;48.584;13.460;2023-04-24T00:57:24;0.70;;;0.70;;
45730;SDS011;31440;48.584;13.460;2023-04-24T01:00:29;0.80;;;0.80;;
45730;SDS011;31440;48.584;13.460;2023-04-24T01:03:35;0.98;;;0.98;;
45730;SDS011;31440;48.584;13.460;2023-04-24T01:06:41;1.00;;;1.00;;
45730;SDS011;31440;48.584;13.460;2023-04-24T01:09:48;1.02;;;1.02;;
45730;SDS011;31440;48.584;13.460;2023-04-24T01:12:55;0.63;;;0.63;;
45730;SDS011;31440;48.584;13.460;2023-04-24T01:16:00;0.80;;;0.80;;
45730;SDS011;31440;48.584;13.460;2023-04-24T01:19:06;1.02;;;1.02;;
45730;SDS011;31440;48.584;13.460;2023-04-24T01:22:11;0.80;;;0.80;;
45730;SDS011;31440;48.584;13.460;2023-04-24T01:25:17;1.13;;;1.13;;
45730;SDS011;31440;48.584;13.460;2023-04-24T01:28:24;1.08;;;1.08;;
45730;SDS011;31440;48.584;13.460;2023-04-24T01:31:28;1.08;;;1.08;;
45730;SDS011;31440;48.584;13.460;2023-04-24T01:34:34;0.70;;;0.70;;
45730;SDS011;31440;48.584;13.460;2023-04-24T01:37:39;0.98;;;0.98;;
45730;SDS011;31440;48.584;13.460;2023-04-24T01:40:43;0.75;;;0.75;;
45730;SDS011;31440;48.584;13.460;2023-04-24T01:43:48;1.08;;;1.08;;
45730;SDS011;31440;48.584;13.460;2023-04-24T01:46:55;0.75;;;0.75;;
45730;SDS011;31440;48.584;13.460;2023-04-24T01:50:00;1.10;;;1.10;;
45730;SDS011;31440;48.584;13.460;2023-04-24T01:53:05;1.17;;;1.17;;
45730;SDS011;31440;48.584;13.460;2023-04-24T01:56:10;0.75;;;0.75;;
45730;SDS011;31440;48.584;13.460;2023-04-24T01:59:15;0.88;;;0.88;;
45730;SDS011;31440;48.584;13.460;2023-04-24T02:02:21;0.98;;;0.98;;
45730;SDS011;31440;48.584;13.460;2023-04-24T02:05:28;1.10;;;1.10;;
45730;SDS011;31440;48.584;13.460;2023-04-24T02:08:32;0.98;;;0.98;;
45730;SDS011;31440;48.584;13.460;2023-04-24T02:11:37;1.08;;;1.08;;
45730;SDS011;31440;48.584;13.460;2023-04-24T02:14:41;1.00;;;1.00;;
45730;SDS011;31440;48.584;13.460;2023-04-24T02:17:47;0.90;;;0.90;;
45730;SDS011;31440;48.584;13.460;2023-04-24T02:20:51;0.95;;;0.95;;
45730;SDS011;31440;48.584;13.460;2023-04-24T02:23:57;0.90;;;0.90;;
45730;SDS011;31440;48.584;13.460;2023-04-24T02:27:01;1.48;;;1.45;;
45730;SDS011;31440;48.584;13.460;2023-04-24T02:30:07;1.95;;;1.85;;
45730;SDS011;31440;48.584;13.460;2023-04-24T02:36:18;5.17;;;5.00;;
45730;SDS011;31440;48.584;13.460;2023-04-24T02:39:25;1.73;;;1.65;;
45730;SDS011;31440;48.584;13.460;2023-04-24T02:42:31;0.70;;;0.70;;
45730;SDS011;31440;48.584;13.460;2023-04-24T02:45:35;0.90;;;0.90;;
45730;SDS011;31440;48.584;13.460;2023-04-24T02:48:40;0.70;;;0.70;;
45730;SDS011;31440;48.584;13.460;2023-04-24T02:51:44;0.75;;;0.75;;
45730;SDS011;31440;48.584;13.460;2023-04-24T02:54:49;0.65;;;0.65;;
45730;SDS011;31440;48.584;13.460;2023-04-24T02:57:53;1.08;;;1.08;;
45730;SDS011;31440;48.584;13.460;2023-04-24T03:00:58;1.08;;;1.08;;
45730;SDS011;31440;48.584;13.460;2023-04-24T03:04:02;0.95;;;0.95;;
45730;SDS011;31440;48.584;13.460;2023-04-24T03:07:08;0.30;;;0.30;;
45730;SDS011;31440;48.584;13.460;2023-04-24T03:10:14;1.83;;;1.75;;
45730;SDS011;31440;48.584;13.460;2023-04-24T03:16:24;1.60;;;1.55;;
45730;SDS011;31440;48.584;13.460;2023-04-24T03:19:32;0.90;;;0.90;;
45730;SDS011;31440;48.584;13.460;2023-04-24T03:22:42;0.95;;;0.95;;
45730;SDS011;31440;48.584;13.460;2023-04-24T03:25:46;0.98;;;0.98;;
45730;SDS011;31440;48.584;13.460;2023-04-24T03:28:55;0.90;;;0.90;;
45730;SDS011;31440;48.584;13.460;2023-04-24T03:32:00;0.75;;;0.75;;
45730;SDS011;31440;48.584;13.460;2023-04-24T03:35:08;0.95;;;0.95;;
45730;SDS011;31440;48.584;13.460;2023-04-24T03:38:13;1.00;;;1.00;;
45730;SDS011;31440;48.584;13.460;2023-04-24T03:41:17;0.75;;;0.75;;
45730;SDS011;31440;48.584;13.460;2023-04-24T03:44:26;0.98;;;0.98;;
45730;SDS011;31440;48.584;13.460;2023-04-24T03:47:31;1.02;;;1.02;;
45730;SDS011;31440;48.584;13.460;2023-04-24T03:50:38;0.88;;;0.88;;
45730;SDS011;31440;48.584;13.460;2023-04-24T03:53:45;1.67;;;1.60;;
45730;SDS011;31440;48.584;13.460;2023-04-24T04:00:03;15.43;;;14.25;;
45730;SDS011;31440;48.584;13.460;2023-04-24T04:06:23;12.95;;;12.45;;
45730;SDS011;31440;48.584;13.460;2023-04-24T04:09:30;12.48;;;11.98;;
45730;SDS011;31440;48.584;13.460;2023-04-24T04:12:35;10.60;;;10.20;;
45730;SDS011;31440;48.584;13.460;2023-04-24T04:15:39;10.85;;;10.45;;
45730;SDS011;31440;48.584;13.460;2023-04-24T04:18:44;10.88;;;10.48;;
45730;SDS011;31440;48.584;13.460;2023-04-24T04:21:49;8.27;;;7.97;;
45730;SDS011;31440;48.584;13.460;2023-04-24T04:25:07;8.63;;;8.32;;
45730;SDS011;31440;48.584;13.460;2023-04-24T04:28:13;7.13;;;6.88;;
45730;SDS011;31440;48.584;13.460;2023-04-24T04:31:18;6.68;;;6.47;;
45730;SDS011;31440;48.584;13.460;2023-04-24T04:34:24;6.78;;;6.57;;
45730;SDS011;31440;48.584;13.460;2023-04-24T04:37:29;7.05;;;6.85;;
45730;SDS011;31440;48.584;13.460;2023-04-24T04:40:50;6.80;;;6.60;;
45730;SDS011;31440;48.584;13.460;2023-04-24T04:43:57;5.70;;;5.50;;
45730;SDS011;31440;48.584;13.460;2023-04-24T04:47:05;6.00;;;5.80;;
45730;SDS011;31440;48.584;13.460;2023-04-24T04:50:13;6.53;;;6.32;;
45730;SDS011;31440;48.584;13.460;2023-04-24T04:53:17;5.57;;;5.38;;
45730;SDS011;31440;48.584;13.460;2023-04-24T04:56:22;6.35;;;6.15;;
45730;SDS011;31440;48.584;13.460;2023-04-24T04:59:26;6.30;;;6.10;;
45730;SDS011;31440;48.584;13.460;2023-04-24T05:02:38;6.13;;;5.93;;
45730;SDS011;31440;48.584;13.460;2023-04-24T05:05:43;5.32;;;5.13;;
45730;SDS011;31440;48.584;13.460;2023-04-24T05:08:50;5.13;;;4.95;;
45730;SDS011;31440;48.584;13.460;2023-04-24T05:12:07;4.95;;;4.80;;
45730;SDS011;31440;48.584;13.460;2023-04-24T05:15:18;7.97;;;7.57;;
45730;SDS011;31440;48.584;13.460;2023-04-24T05:18:23;6.50;;;6.25;;
45730;SDS011;31440;48.584;13.460;2023-04-24T05:21:28;4.40;;;4.30;;
45730;SDS011;31440;48.584;13.460;2023-04-24T05:24:33;4.45;;;4.35;;
45730;SDS011;31440;48.584;13.460;2023-04-24T05:27:46;4.70;;;4.57;;
45730;SDS011;31440;48.584;13.460;2023-04-24T05:30:52;4.57;;;4.47;;
45730;SDS011;31440;48.584;13.460;2023-04-24T05:33:58;4.57;;;4.45;;
45730;SDS011;31440;48.584;13.460;2023-04-24T05:37:02;7.00;;;6.70;;
45730;SDS011;31440;48.584;13.460;2023-04-24T05:40:08;7.13;;;6.80;;
45730;SDS011;31440;48.584;13.460;2023-04-24T05:43:15;3.88;;;3.78;;
45730;SDS011;31440;48.584;13.460;2023-04-24T05:46:19;6.57;;;6.30;;
45730;SDS011;31440;48.584;13.460;2023-04-24T05:49:24;6.80;;;6.50;;
45730;SDS011;31440;48.584;13.460;2023-04-24T05:52:29;6.68;;;6.38;;
45730;SDS011;31440;48.584;13.460;2023-04-24T05:55:35;4.20;;;4.10;;
45730;SDS011;31440;48.584;13.460;2023-04-24T05:58:40;4.43;;;4.32;;
45730;SDS011;31440;48.584;13.460;2023-04-24T06:01:44;4.47;;;4.38;;
45730;SDS011;31440;48.584;13.460;2023-04-24T06:04:55;4.05;;;3.95;;
45730;SDS011;31440;48.584;13.460;2023-04-24T06:08:01;3.85;;;3.75;;
45730;SDS011;31440;48.584;13.460;2023-04-24T06:11:10;4.10;;;4.00;;
45730;SDS011;31440;48.584;13.460;2023-04-24T06:14:15;4.47;;;4.38;;
45730;SDS011;31440;48.584;13.460;2023-04-24T06:20:43;4.50;;;4.40;;
45730;SDS011;31440;48.584;13.460;2023-04-24T06:23:49;3.95;;;3.85;;
45730;SDS011;31440;48.584;13.460;2023-04-24T06:26:54;3.47;;;3.38;;
45730;SDS011;31440;48.584;13.460;2023-04-24T06:29:58;3.75;;;3.65;;
45730;SDS011;31440;48.584;13.460;2023-04-24T06:33:03;3.53;;;3.42;;
45730;SDS011;31440;48.584;13.460;2023-04-24T06:36:23;3.90;;;3.80;;
45730;SDS011;31440;48.584;13.460;2023-04-24T06:39:27;3.75;;;3.65;;
45730;SDS011;31440;48.584;13.460;2023-04-24T06:42:32;3.95;;;3.85;;
45730;SDS011;31440;48.584;13.460;2023-04-24T06:45:36;3.60;;;3.50;;
45730;SDS011;31440;48.584;13.460;2023-04-24T06:48:43;3.00;;;2.90;;
45730;SDS011;31440;48.584;13.460;2023-04-24T06:51:48;3.85;;;3.75;;
45730;SDS011;31440;48.584;13.460;2023-04-24T06:54:52;3.45;;;3.35;;
45730;SDS011;31440;48.584;13.460;2023-04-24T06:58:03;3.38;;;3.28;;
45730;SDS011;31440;48.584;13.460;2023-04-24T07:01:08;3.30;;;3.20;;
45730;SDS011;31440;48.584;13.460;2023-04-24T07:04:12;3.58;;;3.47;;
45730;SDS011;31440;48.584;13.460;2023-04-24T07:07:17;3.78;;;3.67;;
45730;SDS011;31440;48.584;13.460;2023-04-24T07:10:22;3.67;;;3.58;;
45730;SDS011;31440;48.584;13.460;2023-04-24T07:13:27;3.97;;;3.88;;
45730;SDS011;31440;48.584;13.460;2023-04-24T07:16:31;3.20;;;3.10;;
45730;SDS011;31440;48.584;13.460;2023-04-24T07:19:36;3.80;;;3.70;;
45730;SDS011;31440;48.584;13.460;2023-04-24T07:22:41;4.05;;;3.95;;
45730;SDS011;31440;48.584;13.460;2023-04-24T07:25:49;3.38;;;3.28;;
45730;SDS011;31440;48.584;13.460;2023-04-24T07:28:53;3.20;;;3.10;;
45730;SDS011;31440;48.584;13.460;2023-04-24T07:31:59;3.25;;;3.15;;
45730;SDS011;31440;48.584;13.460;2023-04-24T07:35:07;3.05;;;2.95;;
45730;SDS011;31440;48.584;13.460;2023-04-24T07:38:13;3.88;;;3.72;;
45730;SDS011;31440;48.584;13.460;2023-04-24T07:44:26;2.92;;;2.83;;
45730;SDS011;31440;48.584;13.460;2023-04-24T07:47:31;3.25;;;3.15;;
45730;SDS011;31440;48.584;13.460;2023-04-24T07:50:36;3.70;;;3.60;;
45730;SDS011;31440;48.584;13.460;2023-04-24T07:56:47;3.17;;;3.08;;
45730;SDS011;31440;48.584;13.460;2023-04-24T07:59:52;3.58;;;3.47;;
45730;SDS011;31440;48.584;13.460;2023-04-24T08:02:57;3.25;;;3.15;;
45730;SDS011;31440;48.584;13.460;2023-04-24T08:06:01;3.72;;;3.63;;
45730;SDS011;31440;48.584;13.460;2023-04-24T08:09:07;3.15;;;3.05;;
45730;SDS011;31440;48.584;13.460;2023-04-24T08:12:11;3.22;;;3.13;;
45730;SDS011;31440;48.584;13.460;2023-04-24T08:15:16;3.38;;;3.28;;
45730;SDS011;31440;48.584;13.460;2023-04-24T08:18:21;3.28;;;3.17;;
45730;SDS011;31440;48.584;13.460;2023-04-24T08:21:28;3.13;;;3.03;;
45730;SDS011;31440;48.584;13.460;2023-04-24T08:24:32;2.97;;;2.88;;
45730;SDS011;31440;48.584;13.460;2023-04-24T08:27:37;3.03;;;2.92;;
45730;SDS011;31440;48.584;13.460;2023-04-24T08:30:42;3.03;;;2.92;;
45730;SDS011;31440;48.584;13.460;2023-04-24T08:33:47;5.38;;;5.07;;
45730;SDS011;31440;48.584;13.460;2023-04-24T08:36:51;5.32;;;5.10;;
45730;SDS011;31440;48.584;13.460;2023-04-24T08:39:56;5.20;;;4.97;;
45730;SDS011;31440;48.584;13.460;2023-04-24T08:43:00;2.95;;;2.85;;
45730;SDS011;31440;48.584;13.460;2023-04-24T08:46:05;3.17;;;3.08;;
45730;SDS011;31440;48.584;13.460;2023-04-24T08:49:15;2.70;;;2.60;;
45730;SDS011;31440;48.584;13.460;2023-04-24T08:52:22;3.20;;;3.10;;
45730;SDS011;31440;48.584;13.460;2023-04-24T08:55:27;3.40;;;3.30;;
45730;SDS011;31440;48.584;13.460;2023-04-24T08:58:34;4.90;;;4.70;;
45730;SDS011;31440;48.584;13.460;2023-04-24T09:01:40;3.15;;;3.05;;
45730;SDS011;31440;48.584;13.460;2023-04-24T09:04:45;3.35;;;3.25;;
45730;SDS011;31440;48.584;13.460;2023-04-24T09:07:53;3.08;;;2.97;;
45730;SDS011;31440;48.584;13.460;2023-04-24T09:10:59;3.35;;;3.25;;
45730;SDS011;31440;48.584;13.460;2023-04-24T09:14:06;3.40;;;3.30;;
45730;SDS011;31440;48.584;13.460;2023-04-24T09:17:13;3.35;;;3.25;;
45730;SDS011;31440;48.584;13.460;2023-04-24T09:20:18;2.95;;;2.85;;
45730;SDS011;31440;48.584;13.460;2023-04-24T09:23:22;3.55;;;3.45;;
45730;SDS011;31440;48.584;13.460;2023-04-24T09:26:29;3.05;;;2.95;;
45730;SDS011;31440;48.584;13.460;2023-04-24T09:29:39;3.25;;;3.15;;
45730;SDS011;31440;48.584;13.460;2023-04-24T09:32:43;3.22;;;3.13;;
45730;SDS011;31440;48.584;13.460;2023-04-24T09:35:49;3.47;;;3.38;;
45730;SDS011;31440;48.584;13.460;2023-04-24T09:38:59;3.45;;;3.35;;
45730;SDS011;31440;48.584;13.460;2023-04-24T09:42:04;3.20;;;3.10;;
45730;SDS011;31440;48.584;13.460;2023-04-24T09:45:09;3.08;;;2.97;;
45730;SDS011;31440;48.584;13.460;2023-04-24T09:48:18;3.75;;;3.65;;
45730;SDS011;31440;48.584;13.460;2023-04-24T09:51:33;3.50;;;3.40;;
45730;SDS011;31440;48.584;13.460;2023-04-24T09:54:42;3.28;;;3.17;;
45730;SDS011;31440;48.584;13.460;2023-04-24T10:01:04;3.22;;;3.13;;
45730;SDS011;31440;48.584;13.460;2023-04-24T10:04:22;3.22;;;3.13;;
45730;SDS011;31440;48.584;13.460;2023-04-24T10:07:28;3.28;;;3.17;;
45730;SDS011;31440;48.584;13.460;2023-04-24T10:10:38;3.72;;;3.63;;
45730;SDS011;31440;48.584;13.460;2023-04-24T10:13:45;4.07;;;3.95;;
45730;SDS011;31440;48.584;13.460;2023-04-24T10:16:50;5.97;;;5.68;;
45730;SDS011;31440;48.584;13.460;2023-04-24T10:20:03;2.78;;;2.67;;
45730;SDS011;31440;48.584;13.460;2023-04-24T10:23:10;3.35;;;3.25;;
45730;SDS011;31440;48.584;13.460;2023-04-24T10:26:15;3.05;;;2.95;;
45730;SDS011;31440;48.584;13.460;2023-04-24T10:29:21;3.25;;;3.15;;
45730;SDS011;31440;48.584;13.460;2023-04-24T10:32:27;3.22;;;3.13;;
45730;SDS011;31440;48.584;13.460;2023-04-24T10:35:32;3.95;;;3.85;;
45730;SDS011;31440;48.584;13.460;2023-04-24T10:38:41;3.05;;;2.95;;
45730;SDS011;31440;48.584;13.460;2023-04-24T10:41:49;3.25;;;3.15;;
45730;SDS011;31440;48.584;13.460;2023-04-24T10:44:54;3.10;;;3.00;;
45730;SDS011;31440;48.584;13.460;2023-04-24T10:48:04;3.13;;;3.03;;
45730;SDS011;31440;48.584;13.460;2023-04-24T10:51:15;3.33;;;3.22;;
45730;SDS011;31440;48.584;13.460;2023-04-24T10:57:25;3.33;;;3.22;;
45730;SDS011;31440;48.584;13.460;2023-04-24T11:00:33;3.42;;;3.33;;
45730;SDS011;31440;48.584;13.460;2023-04-24T11:03:41;3.08;;;2.97;;
45730;SDS011;31440;48.584;13.460;2023-04-24T11:06:55;3.00;;;2.90;;
45730;SDS011;31440;48.584;13.460;2023-04-24T11:09:59;4.85;;;4.65;;
45730;SDS011;31440;48.584;13.460;2023-04-24T11:13:05;2.90;;;2.80;;
45730;SDS011;31440;48.584;13.460;2023-04-24T11:19:33;3.42;;;3.33;;
45730;SDS011;31440;48.584;13.460;2023-04-24T11:22:38;5.32;;;5.07;;
45730;SDS011;31440;48.584;13.460;2023-04-24T11:25:52;6.00;;;5.70;;
45730;SDS011;31440;48.584;13.460;2023-04-24T11:29:17;4.80;;;4.60;;
45730;SDS011;31440;48.584;13.460;2023-04-24T11:32:27;3.33;;;3.22;;
45730;SDS011;31440;48.584;13.460;2023-04-24T11:35:39;2.78;;;2.67;;
45730;SDS011;31440;48.584;13.460;2023-04-24T11:38:44;3.83;;;3.72;;
45730;SDS011;31440;48.584;13.460;2023-04-24T11:41:50;5.30;;;5.03;;
45730;SDS011;31440;48.584;13.460;2023-04-24T11:44:56;4.93;;;4.72;;
45730;SDS011;31440;48.584;13.460;2023-04-24T11:48:02;4.20;;;4.03;;
45730;SDS011;31440;48.584;13.460;2023-04-24T11:51:08;2.83;;;2.72;;
45730;SDS011;31440;48.584;13.460;2023-04-24T11:54:12;2.63;;;2.55;;
45730;SDS011;31440;48.584;13.460;2023-04-24T11:57:20;3.03;;;2.92;;
45730;SDS011;31440;48.584;13.460;2023-04-24T12:00:27;5.43;;;5.18;;
45730;SDS011;31440;48.584;13.460;2023-04-24T12:03:33;3.22;;;3.10;;
45730;SDS011;31440;48.584;13.460;2023-04-24T12:06:38;5.18;;;4.95;;
45730;SDS011;31440;48.584;13.460;2023-04-24T12:09:43;6.10;;;5.80;;
45730;SDS011;31440;48.584;13.460;2023-04-24T12:12:55;2.73;;;2.63;;
45730;SDS011;31440;48.584;13.460;2023-04-24T12:16:03;2.85;;;2.75;;
45730;SDS011;31440;48.584;13.460;2023-04-24T12:19:09;2.75;;;2.65;;
45730;SDS011;31440;48.584;13.460;2023-04-24T12:22:14;2.88;;;2.78;;
45730;SDS011;31440;48.584;13.460;2023-04-24T12:25:19;2.67;;;2.58;;
45730;SDS011;31440;48.584;13.460;2023-04-24T12:28:25;3.67;;;3.58;;
45730;SDS011;31440;48.584;13.460;2023-04-24T12:31:39;2.95;;;2.85;;
45730;SDS011;31440;48.584;13.460;2023-04-24T12:34:43;2.78;;;2.67;;
45730;SDS011;31440;48.584;13.460;2023-04-24T12:37:48;3.03;;;2.92;;
45730;SDS011;31440;48.584;13.460;2023-04-24T12:47:14;3.00;;;2.90;;
45730;SDS011;31440;48.584;13.460;2023-04-24T12:50:19;2.75;;;2.65;;
45730;SDS011;31440;48.584;13.460;2023-04-24T12:53:23;2.83;;;2.72;;
45730;SDS011;31440;48.584;13.460;2023-04-24T12:56:30;3.28;;;3.17;;
45730;SDS011;31440;48.584;13.460;2023-04-24T12:59:35;2.88;;;2.78;;
45730;SDS011;31440;48.584;13.460;2023-04-24T13:02:39;3.05;;;2.95;;
45730;SDS011;31440;48.584;13.460;2023-04-24T13:05:44;2.88;;;2.78;;
45730;SDS011;31440;48.584;13.460;2023-04-24T13:08:49;2.95;;;2.85;;
45730;SDS011;31440;48.584;13.460;2023-04-24T13:11:55;2.97;;;2.88;;
45730;SDS011;31440;48.584;13.460;2023-04-24T13:15:00;2.95;;;2.85;;
45730;SDS011;31440;48.584;13.460;2023-04-24T13:18:05;3.10;;;3.00;;
45730;SDS011;31440;48.584;13.460;2023-04-24T13:21:10;3.00;;;2.90;;
45730;SDS011;31440;48.584;13.460;2023-04-24T13:24:16;2.90;;;2.80;;
45730;SDS011;31440;48.584;13.460;2023-04-24T13:27:21;2.97;;;2.88;;
45730;SDS011;31440;48.584;13.460;2023-04-24T13:30:25;2.92;;;2.83;;
45730;SDS011;31440;48.584;13.460;2023-04-24T13:33:30;3.00;;;2.90;;
45730;SDS011;31440;48.584;13.460;2023-04-24T13:36:34;2.83;;;2.72;;
45730;SDS011;31440;48.584;13.460;2023-04-24T13:39:39;2.97;;;2.88;;
45730;SDS011;31440;48.584;13.460;2023-04-24T13:42:45;3.17;;;3.08;;
45730;SDS011;31440;48.584;13.460;2023-04-24T13:48:55;2.58;;;2.47;;
45730;SDS011;31440;48.584;13.460;2023-04-24T13:52:01;2.75;;;2.65;;
45730;SDS011;31440;48.584;13.460;2023-04-24T13:55:06;2.67;;;2.58;;
45730;SDS011;31440;48.584;13.460;2023-04-24T13:58:11;2.85;;;2.75;;
45730;SDS011;31440;48.584;13.460;2023-04-24T14:01:15;2.55;;;2.50;;
45730;SDS011;31440;48.584;13.460;2023-04-24T14:07:27;2.95;;;2.85;;
45730;SDS011;31440;48.584;13.460;2023-04-24T14:10:32;2.80;;;2.70;;
45730;SDS011;31440;48.584;13.460;2023-04-24T14:13:37;2.65;;;2.55;;
45730;SDS011;31440;48.584;13.460;2023-04-24T14:16:42;3.00;;;2.90;;
45730;SDS011;31440;48.584;13.460;2023-04-24T14:19:46;2.50;;;2.45;;
45730;SDS011;31440;48.584;13.460;2023-04-24T14:22:51;3.05;;;2.95;;
45730;SDS011;31440;48.584;13.460;2023-04-24T14:25:57;2.40;;;2.35;;
45730;SDS011;31440;48.584;13.460;2023-04-24T14:29:02;2.63;;;2.53;;
45730;SDS011;31440;48.584;13.460;2023-04-24T14:32:18;2.83;;;2.72;;
45730;SDS011;31440;48.584;13.460;2023-04-24T14:35:23;2.83;;;2.72;;
45730;SDS011;31440;48.584;13.460;2023-04-24T14:38:27;2.40;;;2.38;;
45730;SDS011;31440;48.584;13.460;2023-04-24T14:41:32;2.45;;;2.40;;
45730;SDS011;31440;48.584;13.460;2023-04-24T14:44:39;2.42;;;2.40;;
45730;SDS011;31440;48.584;13.460;2023-04-24T14:47:44;2.33;;;2.33;;
45730;SDS011;31440;48.584;13.460;2023-04-24T14:50:49;2.60;;;2.53;;
45730;SDS011;31440;48.584;13.460;2023-04-24T14:53:54;2.25;;;2.25;;
45730;SDS011;31440;48.584;13.460;2023-04-24T14:56:58;2.78;;;2.67;;
45730;SDS011;31440;48.584;13.460;2023-04-24T15:00:03;2.78;;;2.67;;
45730;SDS011;31440;48.584;13.460;2023-04-24T15:03:10;2.75;;;2.65;;
45730;SDS011;31440;48.584;13.460;2023-04-24T15:06:17;2.85;;;2.75;;
45730;SDS011;31440;48.584;13.460;2023-04-24T15:09:22;2.50;;;2.45;;
45730;SDS011;31440;48.584;13.460;2023-04-24T15:12:28;3.08;;;2.97;;
45730;SDS011;31440;48.584;13.460;2023-04-24T15:15:32;2.65;;;2.55;;
45730;SDS011;31440;48.584;13.460;2023-04-24T15:18:37;2.88;;;2.78;;
45730;SDS011;31440;48.584;13.460;2023-04-24T15:21:42;2.75;;;2.65;;
45730;SDS011;31440;48.584;13.460;2023-04-24T15:24:48;2.95;;;2.85;;
45730;SDS011;31440;48.584;13.460;2023-04-24T15:27:53;2.83;;;2.72;;
45730;SDS011;31440;48.584;13.460;2023-04-24T15:30:58;2.55;;;2.47;;
45730;SDS011;31440;48.584;13.460;2023-04-24T15:34:02;2.83;;;2.72;;
45730;SDS011;31440;48.584;13.460;2023-04-24T15:37:07;2.65;;;2.55;;
45730;SDS011;31440;48.584;13.460;2023-04-24T15:40:12;2.55;;;2.47;;
45730;SDS011;31440;48.584;13.460;2023-04-24T15:43:19;2.72;;;2.63;;
45730;SDS011;31440;48.584;13.460;2023-04-24T15:46:24;2.47;;;2.42;;
45730;SDS011;31440;48.584;13.460;2023-04-24T15:49:29;2.85;;;2.75;;
45730;SDS011;31440;48.584;13.460;2023-04-24T15:52:35;2.38;;;2.35;;
45730;SDS011;31440;48.584;13.460;2023-04-24T15:55:39;2.72;;;2.65;;
45730;SDS011;31440;48.584;13.460;2023-04-24T15:58:44;2.85;;;2.75;;
45730;SDS011;31440;48.584;13.460;2023-04-24T16:01:49;2.63;;;2.55;;
45730;SDS011;31440;48.584;13.460;2023-04-24T16:04:54;2.60;;;2.53;;
45730;SDS011;31440;48.584;13.460;2023-04-24T16:07:59;2.53;;;2.45;;
45730;SDS011;31440;48.584;13.460;2023-04-24T16:11:04;2.28;;;2.25;;
45730;SDS011;31440;48.584;13.460;2023-04-24T16:14:09;2.75;;;2.65;;
45730;SDS011;31440;48.584;13.460;2023-04-24T16:17:14;2.95;;;2.85;;
45730;SDS011;31440;48.584;13.460;2023-04-24T16:20:18;2.83;;;2.72;;
45730;SDS011;31440;48.584;13.460;2023-04-24T16:23:23;2.65;;;2.58;;
45730;SDS011;31440;48.584;13.460;2023-04-24T16:26:30;2.67;;;2.60;;
45730;SDS011;31440;48.584;13.460;2023-04-24T16:29:34;2.40;;;2.35;;
45730;SDS011;31440;48.584;13.460;2023-04-24T16:32:39;2.67;;;2.58;;
45730;SDS011;31440;48.584;13.460;2023-04-24T16:35:43;2.97;;;2.88;;
45730;SDS011;31440;48.584;13.460;2023-04-24T16:38:49;2.40;;;2.38;;
45730;SDS011;31440;48.584;13.460;2023-04-24T16:41:54;2.38;;;2.35;;
45730;SDS011;31440;48.584;13.460;2023-04-24T16:45:04;2.47;;;2.42;;
45730;SDS011;31440;48.584;13.460;2023-04-24T16:48:09;2.53;;;2.45;;
45730;SDS011;31440;48.584;13.460;2023-04-24T16:51:14;2.28;;;2.25;;
45730;SDS011;31440;48.584;13.460;2023-04-24T16:54:19;2.67;;;2.58;;
45730;SDS011;31440;48.584;13.460;2023-04-24T16:57:24;2.58;;;2.50;;
45730;SDS011;31440;48.584;13.460;2023-04-24T17:00:28;2.65;;;2.55;;
45730;SDS011;31440;48.584;13.460;2023-04-24T17:03:33;2.13;;;2.13;;
45730;SDS011;31440;48.584;13.460;2023-04-24T17:09:43;2.58;;;2.50;;
45730;SDS011;31440;48.584;13.460;2023-04-24T17:12:48;2.17;;;2.17;;
45730;SDS011;31440;48.584;13.460;2023-04-24T17:15:52;2.70;;;2.60;;
45730;SDS011;31440;48.584;13.460;2023-04-24T17:18:57;2.05;;;2.05;;
45730;SDS011;31440;48.584;13.460;2023-04-24T17:22:01;2.20;;;2.20;;
45730;SDS011;31440;48.584;13.460;2023-04-24T17:28:28;2.47;;;2.42;;
45730;SDS011;31440;48.584;13.460;2023-04-24T17:31:34;2.35;;;2.33;;
45730;SDS011;31440;48.584;13.460;2023-04-24T17:34:39;2.38;;;2.35;;
45730;SDS011;31440;48.584;13.460;2023-04-24T17:37:44;2.53;;;2.45;;
45730;SDS011;31440;48.584;13.460;2023-04-24T17:40:49;2.15;;;2.15;;
45730;SDS011;31440;48.584;13.460;2023-04-24T17:43:55;2.25;;;2.25;;
45730;SDS011;31440;48.584;13.460;2023-04-24T17:47:00;2.47;;;2.42;;
45730;SDS011;31440;48.584;13.460;2023-04-24T17:50:07;2.15;;;2.15;;
45730;SDS011;31440;48.584;13.460;2023-04-24T17:53:12;2.55;;;2.45;;
45730;SDS011;31440;48.584;13.460;2023-04-24T17:56:16;2.22;;;2.22;;
45730;SDS011;31440;48.584;13.460;2023-04-24T17:59:21;2.63;;;2.55;;
45730;SDS011;31440;48.584;13.460;2023-04-24T18:02:26;2.53;;;2.45;;
45730;SDS011;31440;48.584;13.460;2023-04-24T18:05:33;2.28;;;2.25;;
45730;SDS011;31440;48.584;13.460;2023-04-24T18:08:40;2.38;;;2.35;;
45730;SDS011;31440;48.584;13.460;2023-04-24T18:11:45;2.05;;;2.05;;
45730;SDS011;31440;48.584;13.460;2023-04-24T18:14:49;2.15;;;2.15;;
45730;SDS011;31440;48.584;13.460;2023-04-24T18:18:06;2.28;;;2.28;;
45730;SDS011;31440;48.584;13.460;2023-04-24T18:21:10;2.22;;;2.20;;
45730;SDS011;31440;48.584;13.460;2023-04-24T18:24:15;2.25;;;2.22;;
45730;SDS011;31440;48.584;13.460;2023-04-24T18:27:20;1.95;;;1.95;;
45730;SDS011;31440;48.584;13.460;2023-04-24T18:30:24;0.85;;;0.85;;
45730;SDS011;31440;48.584;13.460;2023-04-24T18:33:29;1.08;;;1.08;;
45730;SDS011;31440;48.584;13.460;2023-04-24T18:36:33;1.02;;;1.02;;
45730;SDS011;31440;48.584;13.460;2023-04-24T18:39:38;0.98;;;0.98;;
45730;SDS011;31440;48.584;13.460;2023-04-24T18:42:43;0.83;;;0.83;;
45730;SDS011;31440;48.584;13.460;2023-04-24T18:45:48;1.70;;;1.70;;
45730;SDS011;31440;48.584;13.460;2023-04-24T18:48:54;1.02;;;1.02;;
45730;SDS011;31440;48.584;13.460;2023-04-24T18:51:58;1.08;;;1.08;;
45730;SDS011;31440;48.584;13.460;2023-04-24T18:55:05;1.20;;;1.20;;
45730;SDS011;31440;48.584;13.460;2023-04-24T18:58:10;1.08;;;1.08;;
45730;SDS011;31440;48.584;13.460;2023-04-24T19:01:15;1.15;;;1.15;;
45730;SDS011;31440;48.584;13.460;2023-04-24T19:04:20;1.00;;;1.00;;
45730;SDS011;31440;48.584;13.460;2023-04-24T19:07:28;1.45;;;1.45;;
45730;SDS011;31440;48.584;13.460;2023-04-24T19:10:32;1.55;;;1.55;;
45730;SDS011;31440;48.584;13.460;2023-04-24T19:13:37;0.90;;;0.90;;